createdAt,value
2023-10-23T07:48:20.105Z,13.98
2023-10-23T07:50:46.885Z,14.21
2023-10-23T07:53:13.559Z,14.66
2023-10-23T07:55:40.231Z,15.00
2023-10-23T07:58:06.959Z,15.26
2023-10-23T08:00:33.891Z,15.38
2023-10-23T08:03:00.751Z,15.80
2023-10-23T08:05:27.521Z,16.05
2023-10-23T08:07:54.270Z,16.03
2023-10-23T08:10:20.994Z,16.25
2023-10-23T08:12:47.778Z,16.30
2023-10-23T08:15:14.575Z,16.25
2023-10-23T08:17:42.956Z,16.40
2023-10-23T08:20:09.939Z,16.14
2023-10-23T08:22:36.649Z,16.17
2023-10-23T08:25:03.515Z,16.16
2023-10-23T08:27:30.265Z,16.31
2023-10-23T08:29:56.936Z,16.39
2023-10-23T08:32:28.778Z,16.36
2023-10-23T08:35:04.284Z,16.56
2023-10-23T08:37:31.050Z,16.37
2023-10-23T08:39:57.642Z,16.31
2023-10-23T08:42:27.422Z,16.22
2023-10-23T08:44:53.965Z,16.44
2023-10-23T08:47:20.590Z,16.35
2023-10-23T08:49:47.100Z,16.27
2023-10-23T08:52:13.912Z,16.15
2023-10-23T08:54:40.453Z,16.11
2023-10-23T08:57:07.016Z,15.91
2023-10-23T08:59:33.585Z,15.54
2023-10-23T09:02:01.438Z,15.45
2023-10-23T09:04:28.882Z,15.90
2023-10-23T09:06:55.443Z,15.87
2023-10-23T09:09:22.015Z,15.87
2023-10-23T09:11:48.736Z,15.86
2023-10-23T09:15:05.585Z,15.64
2023-10-23T09:17:32.348Z,15.53
2023-10-23T09:19:59.316Z,15.61
2023-10-23T09:22:26.546Z,15.61
2023-10-23T09:24:53.274Z,15.61
2023-10-23T09:27:20.451Z,15.56
2023-10-23T09:29:47.150Z,15.60
2023-10-23T09:32:13.860Z,15.71
2023-10-23T09:34:40.693Z,15.76
2023-10-23T09:37:07.432Z,15.91
2023-10-23T09:39:34.177Z,16.03
2023-10-23T09:42:00.909Z,16.09
2023-10-23T09:44:27.629Z,16.19
2023-10-23T09:46:54.490Z,16.23
2023-10-23T09:49:21.509Z,16.42
2023-10-23T09:51:48.445Z,16.35
2023-10-23T09:54:15.172Z,16.17
2023-10-23T09:56:41.917Z,16.18
2023-10-23T09:59:08.609Z,15.55
2023-10-23T10:01:35.465Z,14.86
2023-10-23T10:04:02.570Z,14.89
2023-10-23T10:06:29.436Z,15.23
2023-10-23T10:08:56.256Z,15.07
2023-10-23T10:11:22.999Z,15.15
2023-10-23T10:13:49.697Z,15.04
2023-10-23T10:16:16.628Z,15.54
2023-10-23T10:18:43.555Z,15.49
2023-10-23T10:21:10.361Z,14.88
2023-10-23T10:23:37.079Z,15.33
2023-10-23T10:26:04.141Z,15.57
2023-10-23T10:28:30.868Z,15.74
2023-10-23T10:30:57.597Z,15.81
2023-10-23T10:34:24.392Z,15.64
2023-10-23T10:36:11.110Z,16.01
2023-10-23T10:38:37.841Z,16.12
2023-10-23T10:41:04.555Z,16.12
2023-10-23T10:43:31.433Z,15.87
2023-10-23T10:45:58.101Z,16.27
2023-10-23T10:48:24.802Z,16.52
2023-10-23T10:50:51.599Z,16.77
2023-10-23T10:53:18.315Z,17.14
2023-10-23T10:55:45.020Z,17.32
2023-10-23T10:58:11.751Z,17.49
2023-10-23T11:00:38.514Z,17.12
2023-10-23T11:03:05.343Z,17.49
2023-10-23T11:05:32.068Z,16.64
2023-10-23T11:07:58.795Z,17.02
2023-10-23T11:10:25.586Z,17.21
2023-10-23T11:12:52.302Z,17.43
2023-10-23T11:15:19.195Z,17.53
2023-10-23T11:17:46.022Z,17.80
2023-10-23T11:20:12.766Z,17.91
2023-10-23T11:22:39.428Z,17.98
2023-10-23T11:25:06.155Z,18.01
2023-10-23T11:27:32.821Z,18.00
2023-10-23T11:29:59.500Z,18.08
2023-10-23T11:32:26.170Z,18.09
2023-10-23T11:34:52.874Z,17.99
2023-10-23T11:37:19.658Z,17.84
2023-10-23T11:39:47.178Z,17.83
2023-10-23T11:42:14.196Z,17.72
2023-10-23T11:44:40.921Z,17.63
2023-10-23T11:47:07.778Z,17.85
2023-10-23T11:49:34.729Z,17.82
2023-10-23T11:52:01.493Z,18.00
2023-10-23T11:54:28.355Z,17.88
2023-10-23T11:56:56.741Z,18.01
2023-10-23T11:59:24.804Z,17.93
2023-10-23T12:01:51.520Z,18.13
2023-10-23T12:04:18.384Z,18.35
2023-10-23T12:06:45.149Z,18.49
2023-10-23T12:09:11.815Z,18.49
2023-10-23T12:11:38.846Z,18.66
2023-10-23T12:14:05.643Z,18.61
2023-10-23T12:16:32.350Z,18.64
2023-10-23T12:18:59.113Z,18.43
2023-10-23T12:21:25.880Z,18.48
2023-10-23T12:23:52.590Z,18.40
2023-10-23T12:26:19.249Z,18.27
2023-10-23T12:28:45.990Z,18.34
2023-10-23T12:31:22.562Z,18.35
2023-10-23T12:33:51.276Z,18.33
2023-10-23T12:36:18.201Z,18.56
2023-10-23T12:38:44.886Z,18.59
2023-10-23T12:41:11.614Z,18.50
2023-10-23T12:43:38.396Z,18.53
2023-10-23T12:46:05.500Z,18.38
2023-10-23T12:48:32.320Z,18.20
2023-10-23T12:50:59.192Z,18.28
2023-10-23T12:53:26.001Z,18.19
2023-10-23T12:55:52.798Z,18.38
2023-10-23T12:58:19.623Z,18.31
2023-10-23T13:00:46.423Z,18.18
2023-10-23T13:03:13.367Z,17.83
2023-10-23T13:05:40.089Z,17.83
2023-10-23T13:08:07.011Z,18.05
2023-10-23T13:10:33.844Z,18.08
2023-10-23T13:13:00.776Z,18.27
2023-10-23T13:15:27.623Z,18.22
2023-10-23T13:17:54.419Z,18.32
2023-10-23T13:21:27.263Z,18.41
2023-10-23T13:23:07.935Z,18.30
2023-10-23T13:25:34.857Z,18.45
2023-10-23T13:28:01.647Z,18.48
2023-10-23T13:30:28.795Z,18.41
2023-10-23T13:32:55.675Z,18.49
2023-10-23T13:35:22.373Z,18.45
2023-10-23T13:37:49.061Z,18.48
2023-10-23T13:40:15.898Z,18.50
2023-10-23T13:42:42.752Z,18.54
2023-10-23T13:45:09.532Z,18.64
2023-10-23T13:47:36.393Z,18.73
2023-10-23T13:50:03.161Z,18.87
2023-10-23T13:52:29.892Z,18.95
2023-10-23T13:54:59.981Z,18.75
2023-10-23T13:57:26.744Z,18.84
2023-10-23T13:59:53.424Z,18.96
2023-10-23T14:02:20.250Z,18.68
2023-10-23T14:04:47.163Z,18.67
2023-10-23T14:07:13.918Z,18.86
2023-10-23T14:09:46.320Z,18.89
2023-10-23T14:12:14.705Z,18.90
2023-10-23T14:14:41.463Z,18.84
2023-10-23T14:17:08.607Z,18.97
2023-10-23T14:19:46.630Z,18.61
2023-10-23T14:22:14.379Z,18.74
2023-10-23T14:24:41.312Z,18.89
2023-10-23T14:27:08.315Z,18.99
2023-10-23T14:29:35.049Z,18.84
2023-10-23T14:32:01.894Z,18.86
2023-10-23T14:34:28.826Z,19.20
2023-10-23T14:36:55.652Z,18.93
2023-10-23T14:39:22.406Z,18.66
2023-10-23T14:41:49.105Z,18.69
2023-10-23T14:44:15.853Z,18.64
2023-10-23T14:46:42.607Z,18.54
2023-10-23T14:49:09.434Z,18.64
2023-10-23T14:51:36.097Z,18.56
2023-10-23T14:54:02.783Z,18.52
2023-10-23T14:56:29.450Z,18.38
2023-10-23T14:58:56.236Z,18.56
2023-10-23T15:01:22.963Z,18.48
2023-10-23T15:03:49.788Z,18.46
2023-10-23T15:06:16.503Z,18.42
2023-10-23T15:08:43.183Z,18.34
2023-10-23T15:11:09.882Z,18.30
2023-10-23T15:13:36.540Z,18.40
2023-10-23T15:16:03.242Z,18.47
2023-10-23T15:18:29.986Z,18.45
2023-10-23T15:20:56.688Z,18.22
2023-10-23T15:23:23.431Z,18.28
2023-10-23T15:25:50.129Z,18.37
2023-10-23T15:28:16.853Z,18.19
2023-10-23T15:30:43.556Z,18.28
2023-10-23T15:33:10.282Z,18.13
2023-10-23T15:35:37.003Z,18.10
2023-10-23T15:38:03.697Z,18.03
2023-10-23T15:40:32.377Z,18.05
2023-10-23T15:42:59.381Z,18.01
2023-10-23T15:45:26.058Z,18.03
2023-10-23T15:47:52.897Z,18.00
2023-10-23T15:50:19.632Z,18.05
2023-10-23T15:52:46.452Z,18.12
2023-10-23T15:55:13.248Z,18.12
2023-10-23T15:57:39.942Z,18.04
2023-10-23T16:00:06.647Z,17.86
2023-10-23T16:02:33.367Z,17.76
2023-10-23T16:05:00.376Z,17.71
2023-10-23T16:07:27.124Z,17.65
2023-10-23T16:09:53.900Z,17.66
2023-10-23T16:12:20.836Z,17.56
2023-10-23T16:14:56.568Z,17.57
2023-10-23T16:17:24.198Z,17.50
2023-10-23T16:19:51.031Z,17.37
2023-10-23T16:22:17.750Z,17.24
2023-10-23T16:24:44.634Z,17.26
2023-10-23T16:27:11.388Z,17.33
2023-10-23T16:29:38.225Z,17.20
2023-10-23T16:32:05.350Z,17.29
2023-10-23T16:34:32.329Z,17.07
2023-10-23T16:36:59.646Z,17.15
2023-10-23T16:39:26.390Z,17.04
2023-10-23T16:41:53.165Z,16.97
2023-10-23T16:44:19.906Z,17.17
2023-10-23T16:46:46.665Z,17.08
2023-10-23T16:49:13.574Z,17.19
2023-10-23T16:51:40.308Z,17.12
2023-10-23T16:54:07.178Z,17.10
2023-10-23T16:56:33.884Z,16.99
2023-10-23T16:59:00.685Z,16.99
2023-10-23T17:01:27.862Z,17.02
2023-10-23T17:03:54.714Z,16.92
2023-10-23T17:06:21.424Z,17.05
2023-10-23T17:08:48.206Z,16.92
2023-10-23T17:11:14.904Z,16.91
2023-10-23T17:13:41.674Z,16.78
2023-10-23T17:16:08.434Z,16.87
2023-10-23T17:18:35.201Z,17.03
2023-10-23T17:21:01.893Z,17.07
2023-10-23T17:23:28.610Z,16.89
2023-10-23T17:25:55.786Z,16.93
2023-10-23T17:28:22.698Z,16.96
2023-10-23T17:30:49.822Z,17.02
2023-10-23T17:33:16.471Z,16.85
2023-10-23T17:35:43.097Z,16.86
2023-10-23T17:38:09.693Z,16.86
2023-10-23T17:40:36.360Z,16.86
2023-10-23T17:43:02.964Z,16.72
2023-10-23T17:45:29.528Z,16.73
2023-10-23T17:47:56.225Z,16.79
2023-10-23T17:50:22.828Z,16.79
2023-10-23T17:52:49.491Z,16.73
2023-10-23T17:55:16.045Z,16.78
2023-10-23T17:57:42.586Z,16.52
2023-10-23T18:00:09.178Z,16.68
2023-10-23T18:02:35.921Z,16.75
2023-10-23T18:05:02.666Z,16.89
2023-10-23T18:07:29.243Z,16.82
2023-10-23T18:09:55.950Z,16.80
2023-10-23T18:12:37.387Z,16.67
2023-10-23T18:15:04.938Z,16.84
2023-10-23T18:17:31.660Z,16.89
2023-10-23T18:19:58.331Z,16.98
2023-10-23T18:22:24.980Z,16.90
2023-10-23T18:24:52.051Z,16.90
2023-10-23T18:27:19.227Z,16.99
2023-10-23T18:29:47.181Z,16.91
2023-10-23T18:32:13.869Z,16.92
2023-10-23T18:34:40.660Z,17.01
2023-10-23T18:37:07.423Z,16.95
2023-10-23T18:39:34.250Z,16.96
2023-10-23T18:42:01.008Z,16.96
2023-10-23T18:44:27.663Z,16.85
2023-10-23T18:46:54.421Z,16.73
2023-10-23T18:49:21.262Z,16.81
2023-10-23T18:51:47.980Z,16.81
2023-10-23T18:54:14.784Z,16.84
2023-10-23T18:56:41.761Z,16.74
2023-10-23T18:59:08.522Z,16.81
2023-10-23T19:01:35.311Z,16.84
2023-10-23T19:04:02.222Z,16.90
2023-10-23T19:06:29.070Z,16.88
2023-10-23T19:08:55.952Z,16.80
2023-10-23T19:11:22.706Z,16.88
2023-10-23T19:13:49.504Z,16.80
2023-10-23T19:16:16.411Z,16.81
2023-10-23T19:18:43.236Z,16.75
2023-10-23T19:21:10.011Z,16.73
2023-10-23T19:23:36.714Z,16.89
2023-10-23T19:26:03.438Z,16.86
2023-10-23T19:28:30.369Z,16.83
2023-10-23T19:30:57.351Z,16.75
2023-10-23T19:33:24.098Z,16.88
2023-10-23T19:35:50.799Z,16.82
2023-10-23T19:38:17.522Z,16.80
2023-10-23T19:40:44.376Z,16.71
2023-10-23T19:43:11.560Z,16.77
2023-10-23T19:45:38.492Z,16.57
2023-10-23T19:48:05.224Z,16.78
2023-10-23T19:50:32.182Z,16.64
2023-10-23T19:52:59.094Z,16.59
2023-10-23T19:55:43.230Z,16.58
2023-10-23T19:58:12.510Z,16.58
2023-10-23T20:00:39.434Z,16.58
2023-10-23T20:03:06.235Z,16.47
2023-10-23T20:05:33.146Z,16.62
2023-10-23T20:07:59.868Z,16.58
2023-10-23T20:10:26.628Z,16.64
2023-10-23T20:12:53.434Z,16.73
2023-10-23T20:15:20.323Z,16.74
2023-10-23T20:17:47.086Z,16.60
2023-10-23T20:20:13.960Z,16.56
2023-10-23T20:22:40.842Z,16.73
2023-10-23T20:25:07.599Z,16.57
2023-10-23T20:27:34.277Z,16.49
2023-10-23T20:30:01.000Z,16.46
2023-10-23T20:32:27.870Z,16.52
2023-10-23T20:34:54.604Z,16.52
2023-10-23T20:37:21.825Z,16.42
2023-10-23T20:39:49.358Z,16.27
2023-10-23T20:42:16.207Z,16.36
2023-10-23T20:44:42.974Z,16.37
2023-10-23T20:47:09.802Z,16.02
2023-10-23T20:49:36.691Z,16.23
2023-10-23T20:52:03.506Z,16.57
2023-10-23T20:54:30.242Z,16.34
2023-10-23T20:56:57.145Z,16.35
2023-10-23T20:59:24.009Z,16.58
2023-10-23T21:01:52.379Z,16.46
2023-10-23T21:04:19.153Z,16.40
2023-10-23T21:06:46.104Z,16.77
2023-10-23T21:09:12.794Z,16.70
2023-10-23T21:11:39.513Z,16.86
2023-10-23T21:14:06.526Z,16.88
2023-10-23T21:16:33.663Z,16.75
2023-10-23T21:19:00.877Z,16.83
2023-10-23T21:21:28.161Z,16.88
2023-10-23T21:23:54.882Z,16.79
2023-10-23T21:26:21.623Z,16.51
2023-10-23T21:28:48.431Z,16.55
2023-10-23T21:31:15.381Z,16.83
2023-10-23T21:33:42.185Z,16.82
2023-10-23T21:36:08.881Z,16.83
2023-10-23T21:38:35.741Z,16.63
2023-10-23T21:41:02.409Z,16.02
2023-10-23T21:43:29.148Z,16.13
2023-10-23T21:46:15.102Z,16.28
2023-10-23T21:48:42.776Z,16.30
2023-10-23T21:51:09.562Z,16.05
2023-10-23T21:53:36.407Z,15.32
2023-10-23T21:56:03.254Z,15.29
2023-10-23T21:59:03.967Z,15.59
2023-10-23T22:01:16.832Z,15.76
2023-10-23T22:03:47.135Z,15.91
2023-10-23T22:06:13.911Z,16.31
2023-10-23T22:08:40.715Z,16.54
2023-10-23T22:11:07.483Z,16.07
2023-10-23T22:13:34.227Z,16.52
2023-10-23T22:16:01.003Z,16.58
2023-10-23T22:18:27.739Z,16.58
2023-10-23T22:20:54.546Z,16.95
2023-10-23T22:23:21.319Z,16.94
2023-10-23T22:25:48.006Z,17.00
2023-10-23T22:28:14.726Z,16.76
2023-10-23T22:30:41.572Z,16.71
2023-10-23T22:33:14.932Z,16.30
2023-10-23T22:35:42.013Z,15.98
2023-10-23T22:38:10.085Z,16.16
2023-10-23T22:40:36.935Z,16.32
2023-10-23T22:43:03.734Z,16.63
2023-10-23T22:45:30.546Z,15.77
2023-10-23T22:47:57.323Z,15.50
2023-10-23T22:50:24.052Z,15.87
2023-10-23T22:52:50.824Z,16.06
2023-10-23T22:55:17.628Z,16.25
2023-10-23T22:57:44.364Z,16.42
2023-10-23T23:00:11.076Z,16.48
2023-10-23T23:02:37.830Z,16.46
2023-10-23T23:05:04.646Z,16.48
2023-10-23T23:07:31.365Z,16.46
2023-10-23T23:09:58.073Z,16.64
2023-10-23T23:12:24.817Z,16.51
2023-10-23T23:14:51.488Z,16.61
2023-10-23T23:17:18.209Z,17.00
2023-10-23T23:19:44.979Z,16.85
2023-10-23T23:22:11.757Z,16.92
2023-10-23T23:24:38.842Z,16.98
2023-10-23T23:27:05.774Z,17.00
2023-10-23T23:29:35.001Z,16.93
2023-10-23T23:32:01.729Z,16.97
2023-10-23T23:34:28.544Z,17.02
2023-10-23T23:36:55.291Z,17.01
2023-10-23T23:39:22.012Z,17.00
2023-10-23T23:41:48.746Z,17.00
2023-10-23T23:44:15.451Z,16.90
2023-10-23T23:46:42.131Z,16.95
2023-10-23T23:49:08.836Z,16.84
2023-10-23T23:51:35.541Z,16.70
2023-10-23T23:54:02.247Z,16.74
2023-10-23T23:56:28.987Z,16.83
2023-10-23T23:58:55.772Z,16.80
